Time;durP1;ratioP1;P1;durP2;ratioP2;P2;SDS_P1;SDS_P2;PMS_P1;PMS_P2;Temp;Humidity;BMP_temperature;BMP_pressure;BME280_temperature;BME280_humidity;BME280_pressure;Samples;Min_cycle;Max_cycle;Signal;HPM_P1;HPM_P2
2023/06/17 00:02:16;;;;;;;10.88;3.83;;;;;;;;;;5066335;28;20785;-66
2023/06/17 00:05:57;;;;;;;9.23;3.88;;;;;;;;;;5051227;28;20056;-63
2023/06/17 00:09:41;;;;;;;10.98;3.95;;;;;;;;;;5046005;28;20437;-64
2023/06/17 00:12:38;;;;;;;9.25;4.25;;;;;;;;;;5049586;22;20060;-64
2023/06/17 00:15:06;;;;;;;13.48;3.85;;;;;;;;;;5039621;28;20094;-62
2023/06/17 00:17:32;;;;;;;7.60;4.05;;;;;;;;;;5043447;28;20114;-63
2023/06/17 00:20:00;;;;;;;10.38;3.83;;;;;;;;;;5045724;28;20057;-62
2023/06/17 00:22:29;;;;;;;8.80;4.00;;;;;;;;;;5035737;28;20053;-63
2023/06/17 00:24:56;;;;;;;10.30;4.10;;;;;;;;;;5041444;28;20181;-64
2023/06/17 00:27:23;;;;;;;6.35;4.20;;;;;;;;;;5041486;28;20601;-62
2023/06/17 00:29:49;;;;;;;8.05;4.70;;;;;;;;;;5043429;28;20049;-64
2023/06/17 00:32:18;;;;;;;13.63;5.05;;;;;;;;;;5041889;28;20080;-65
2023/06/17 00:34:44;;;;;;;6.80;4.20;;;;;;;;;;5047059;28;20041;-62
2023/06/17 00:37:11;;;;;;;7.95;4.93;;;;;;;;;;5040604;28;20056;-61
2023/06/17 00:39:37;;;;;;;11.55;4.72;;;;;;;;;;5048570;28;20057;-63
2023/06/17 00:42:03;;;;;;;11.15;5.25;;;;;;;;;;5040000;28;20045;-63
2023/06/17 00:44:29;;;;;;;9.32;5.25;;;;;;;;;;5049010;28;20041;-62
2023/06/17 00:46:56;;;;;;;12.30;4.78;;;;;;;;;;5041245;28;20049;-62
2023/06/17 00:49:33;;;;;;;9.32;4.65;;;;;;;;;;5044701;28;20448;-63
2023/06/17 00:52:07;;;;;;;10.20;5.10;;;;;;;;;;5045906;28;20139;-62
2023/06/17 00:54:38;;;;;;;11.05;4.80;;;;;;;;;;5042222;28;20109;-62
2023/06/17 00:57:13;;;;;;;11.80;5.10;;;;;;;;;;5043609;28;20049;-63
2023/06/17 00:59:43;;;;;;;11.63;5.03;;;;;;;;;;5038042;28;20064;-62
2023/06/17 01:02:13;;;;;;;9.38;4.93;;;;;;;;;;5042668;28;20068;-66
2023/06/17 01:04:43;;;;;;;10.40;4.95;;;;;;;;;;5042764;28;20052;-68
2023/06/17 01:07:35;;;;;;;10.70;5.45;;;;;;;;;;5036088;28;20424;-64
2023/06/17 01:10:16;;;;;;;8.95;5.07;;;;;;;;;;5036812;28;20049;-65
2023/06/17 01:12:45;;;;;;;8.93;5.07;;;;;;;;;;5045701;28;20110;-64
2023/06/17 01:15:15;;;;;;;8.77;5.15;;;;;;;;;;5053953;28;20119;-65
2023/06/17 01:17:44;;;;;;;9.07;5.35;;;;;;;;;;5052201;28;20514;-62
2023/06/17 01:20:12;;;;;;;11.77;5.15;;;;;;;;;;5047980;28;20178;-68
2023/06/17 01:22:40;;;;;;;8.38;5.20;;;;;;;;;;5044454;28;20049;-63
2023/06/17 01:25:08;;;;;;;9.93;5.18;;;;;;;;;;5044775;28;20049;-63
2023/06/17 01:27:34;;;;;;;6.55;5.00;;;;;;;;;;5049318;28;20142;-64
2023/06/17 01:30:02;;;;;;;11.63;5.50;;;;;;;;;;5045084;28;20049;-64
2023/06/17 01:32:27;;;;;;;7.75;5.07;;;;;;;;;;5039764;28;20057;-62
2023/06/17 01:35:02;;;;;;;6.80;4.65;;;;;;;;;;5049686;28;20615;-63
2023/06/17 01:37:34;;;;;;;11.75;5.18;;;;;;;;;;5042776;28;20045;-61
2023/06/17 01:40:03;;;;;;;7.65;5.07;;;;;;;;;;5045105;28;20507;-64
2023/06/17 01:42:31;;;;;;;7.30;5.10;;;;;;;;;;5054921;28;20049;-64
2023/06/17 01:45:01;;;;;;;8.27;5.25;;;;;;;;;;5041402;28;20075;-63
2023/06/17 01:47:27;;;;;;;9.73;5.45;;;;;;;;;;5049832;28;20504;-62
2023/06/17 01:49:58;;;;;;;10.40;5.40;;;;;;;;;;5043513;28;20436;-62
2023/06/17 01:52:24;;;;;;;10.00;5.18;;;;;;;;;;5047197;28;20479;-61
2023/06/17 01:54:52;;;;;;;9.80;5.22;;;;;;;;;;5034599;28;20504;-61
2023/06/17 01:57:18;;;;;;;11.88;5.80;;;;;;;;;;5042769;28;20053;-66
2023/06/17 01:59:44;;;;;;;12.07;5.40;;;;;;;;;;5045766;28;20060;-63
2023/06/17 02:02:10;;;;;;;9.90;6.00;;;;;;;;;;5044561;28;20056;-64
2023/06/17 02:04:36;;;;;;;10.10;5.63;;;;;;;;;;5045983;28;20111;-64
2023/06/17 02:07:02;;;;;;;11.32;5.88;;;;;;;;;;5057876;28;20057;-61
2023/06/17 02:09:29;;;;;;;12.82;6.15;;;;;;;;;;5046076;28;20088;-63
2023/06/17 02:11:57;;;;;;;14.70;5.97;;;;;;;;;;5032670;28;20416;-61
2023/06/17 02:14:23;;;;;;;12.27;6.22;;;;;;;;;;5049663;28;20063;-61
2023/06/17 02:16:52;;;;;;;12.57;5.72;;;;;;;;;;5058958;28;20045;-62
2023/06/17 02:19:18;;;;;;;8.80;6.10;;;;;;;;;;5061416;28;20044;-67
2023/06/17 02:21:44;;;;;;;8.93;6.35;;;;;;;;;;5037841;28;20553;-62
2023/06/17 02:24:10;;;;;;;12.15;6.22;;;;;;;;;;5035405;28;20053;-62
2023/06/17 02:26:36;;;;;;;10.55;6.00;;;;;;;;;;5043008;28;20991;-64
2023/06/17 02:29:03;;;;;;;13.18;6.35;;;;;;;;;;5041189;28;20054;-63
2023/06/17 02:31:29;;;;;;;10.27;6.43;;;;;;;;;;5044929;28;20064;-64
2023/06/17 02:33:56;;;;;;;9.93;6.45;;;;;;;;;;5041709;28;20137;-61
2023/06/17 02:36:22;;;;;;;13.40;6.15;;;;;;;;;;5044898;28;20053;-62
2023/06/17 02:38:48;;;;;;;10.15;6.55;;;;;;;;;;5047932;28;20052;-63
2023/06/17 02:41:13;;;;;;;11.43;6.70;;;;;;;;;;5040113;28;20041;-60
2023/06/17 02:43:39;;;;;;;15.80;6.63;;;;;;;;;;5041047;28;20403;-62
2023/06/17 02:46:06;;;;;;;10.55;6.00;;;;;;;;;;5044417;28;20408;-61
2023/06/17 02:48:32;;;;;;;11.52;6.13;;;;;;;;;;5040789;28;20060;-63
2023/06/17 02:50:59;;;;;;;11.40;6.55;;;;;;;;;;5047664;28;20180;-63
2023/06/17 02:53:25;;;;;;;10.32;6.80;;;;;;;;;;5042808;28;20108;-63
2023/06/17 02:55:53;;;;;;;11.32;6.30;;;;;;;;;;5044858;28;20065;-63
2023/06/17 02:58:19;;;;;;;11.43;5.93;;;;;;;;;;5032749;28;20420;-62
2023/06/17 03:00:46;;;;;;;12.70;6.40;;;;;;;;;;5043243;28;20046;-64
2023/06/17 03:03:13;;;;;;;10.25;6.07;;;;;;;;;;5038016;28;20111;-62
2023/06/17 03:05:40;;;;;;;14.23;6.40;;;;;;;;;;5044944;28;21431;-62
2023/06/17 03:08:07;;;;;;;12.93;6.80;;;;;;;;;;5053720;28;20049;-62
2023/06/17 03:10:34;;;;;;;9.43;6.45;;;;;;;;;;5041713;28;20605;-62
2023/06/17 03:13:01;;;;;;;11.73;6.20;;;;;;;;;;5042079;28;20118;-62
2023/06/17 03:15:27;;;;;;;10.38;6.03;;;;;;;;;;5044191;28;20554;-62
2023/06/17 03:17:53;;;;;;;12.18;6.35;;;;;;;;;;5046675;28;20045;-63
2023/06/17 03:20:20;;;;;;;15.32;6.15;;;;;;;;;;5043761;28;20048;-63
2023/06/17 03:22:47;;;;;;;7.68;6.05;;;;;;;;;;5040824;28;20045;-63
2023/06/17 03:25:13;;;;;;;14.13;6.22;;;;;;;;;;5055850;28;20178;-63
2023/06/17 03:27:39;;;;;;;14.18;5.93;;;;;;;;;;5051853;28;20416;-63
2023/06/17 03:30:05;;;;;;;14.63;6.82;;;;;;;;;;5050259;28;20068;-64
2023/06/17 03:32:31;;;;;;;10.98;6.00;;;;;;;;;;5047468;28;20049;-62
2023/06/17 03:34:59;;;;;;;11.18;5.78;;;;;;;;;;5045646;28;20044;-64
2023/06/17 03:37:27;;;;;;;12.13;6.30;;;;;;;;;;5049205;28;20064;-64
2023/06/17 03:39:52;;;;;;;10.07;6.47;;;;;;;;;;5051112;28;20456;-63
2023/06/17 03:42:18;;;;;;;10.95;7.05;;;;;;;;;;5045770;28;20044;-64
2023/06/17 03:44:44;;;;;;;14.27;7.22;;;;;;;;;;5046339;28;20102;-62
2023/06/17 03:47:10;;;;;;;13.73;6.57;;;;;;;;;;5048685;28;20071;-63
2023/06/17 03:49:37;;;;;;;11.90;6.65;;;;;;;;;;5045462;28;20492;-62
2023/06/17 03:52:04;;;;;;;10.55;6.53;;;;;;;;;;5041960;28;20060;-63
2023/06/17 03:54:30;;;;;;;11.50;6.63;;;;;;;;;;5048883;28;20965;-63
2023/06/17 03:56:56;;;;;;;10.27;6.32;;;;;;;;;;5048535;28;20045;-63
2023/06/17 03:59:22;;;;;;;12.88;7.00;;;;;;;;;;5050044;28;20060;-62
2023/06/17 04:01:48;;;;;;;13.35;6.57;;;;;;;;;;5045731;28;20050;-62
2023/06/17 04:04:15;;;;;;;11.63;6.63;;;;;;;;;;5041682;28;20044;-63
2023/06/17 04:06:41;;;;;;;17.13;6.55;;;;;;;;;;5035773;28;20057;-63
2023/06/17 04:09:08;;;;;;;9.50;6.18;;;;;;;;;;5045223;28;20155;-64
2023/06/17 04:11:34;;;;;;;11.88;6.22;;;;;;;;;;5044741;28;20064;-64
2023/06/17 04:14:00;;;;;;;11.95;6.32;;;;;;;;;;5053695;28;20045;-63
2023/06/17 04:16:30;;;;;;;14.40;6.88;;;;;;;;;;5046096;28;20107;-64
2023/06/17 04:18:57;;;;;;;11.35;6.82;;;;;;;;;;5051983;28;20114;-67
2023/06/17 04:21:23;;;;;;;13.00;6.28;;;;;;;;;;5056759;28;20033;-62
2023/06/17 04:23:50;;;;;;;10.30;6.22;;;;;;;;;;5053932;28;20044;-63
2023/06/17 04:26:16;;;;;;;15.50;6.03;;;;;;;;;;5049324;28;20049;-62
2023/06/17 04:28:42;;;;;;;12.85;6.05;;;;;;;;;;5044093;28;20455;-63
2023/06/17 04:31:10;;;;;;;10.38;6.07;;;;;;;;;;5045311;28;20053;-62
2023/06/17 04:33:37;;;;;;;10.50;5.55;;;;;;;;;;5047083;28;20131;-64
2023/06/17 04:36:08;;;;;;;14.45;6.15;;;;;;;;;;5047505;28;20048;-63
2023/06/17 04:38:36;;;;;;;10.18;5.82;;;;;;;;;;5047466;28;20171;-63
2023/06/17 04:41:04;;;;;;;11.20;6.35;;;;;;;;;;5045066;28;20053;-64
2023/06/17 04:43:32;;;;;;;17.40;6.07;;;;;;;;;;5038380;28;20118;-64
2023/06/17 04:46:01;;;;;;;9.90;5.90;;;;;;;;;;5048997;28;20467;-64
2023/06/17 04:48:28;;;;;;;11.73;6.10;;;;;;;;;;5049576;28;20045;-64
2023/06/17 04:50:58;;;;;;;10.27;6.60;;;;;;;;;;5053093;28;20446;-67
2023/06/17 04:53:26;;;;;;;10.02;6.00;;;;;;;;;;5047425;28;20052;-63
2023/06/17 04:55:52;;;;;;;13.98;6.20;;;;;;;;;;5035501;28;20681;-62
2023/06/17 04:58:18;;;;;;;11.77;5.93;;;;;;;;;;5042988;28;20057;-64
2023/06/17 05:00:45;;;;;;;12.20;6.10;;;;;;;;;;5038515;28;20053;-63
2023/06/17 05:03:11;;;;;;;8.88;5.90;;;;;;;;;;5042141;28;20721;-67
2023/06/17 05:05:37;;;;;;;12.27;6.20;;;;;;;;;;5047180;28;20053;-64
2023/06/17 05:08:03;;;;;;;9.45;6.40;;;;;;;;;;5044122;28;20071;-65
2023/06/17 05:10:30;;;;;;;15.63;6.05;;;;;;;;;;5051103;28;20064;-64
2023/06/17 05:12:59;;;;;;;9.18;6.15;;;;;;;;;;5043626;28;20189;-63
2023/06/17 05:15:25;;;;;;;11.68;6.28;;;;;;;;;;5043051;28;20053;-63
2023/06/17 05:17:51;;;;;;;8.80;6.03;;;;;;;;;;5044293;28;20459;-65
2023/06/17 05:20:17;;;;;;;9.63;6.05;;;;;;;;;;5037688;28;20036;-65
2023/06/17 05:22:43;;;;;;;10.25;6.22;;;;;;;;;;5049022;28;20095;-65
2023/06/17 05:25:09;;;;;;;13.20;5.72;;;;;;;;;;5045951;28;20492;-62
2023/06/17 05:27:37;;;;;;;9.68;5.80;;;;;;;;;;5044619;28;20053;-64
2023/06/17 05:30:06;;;;;;;9.57;6.13;;;;;;;;;;5041103;28;20047;-64
2023/06/17 05:32:32;;;;;;;9.32;6.25;;;;;;;;;;5045566;28;20531;-64
2023/06/17 05:34:59;;;;;;;10.95;5.90;;;;;;;;;;5044986;28;20098;-63
2023/06/17 05:37:25;;;;;;;12.32;5.60;;;;;;;;;;5042417;28;20515;-62
2023/06/17 05:39:52;;;;;;;13.32;6.43;;;;;;;;;;5045817;28;20744;-63
2023/06/17 05:42:20;;;;;;;10.10;6.20;;;;;;;;;;5036128;28;20128;-65
2023/06/17 05:44:48;;;;;;;10.60;6.25;;;;;;;;;;5048143;28;20048;-65
2023/06/17 05:47:14;;;;;;;18.42;6.88;;;;;;;;;;5026357;28;20079;-63
2023/06/17 05:49:40;;;;;;;16.45;6.63;;;;;;;;;;5034703;28;20296;-65
2023/06/17 05:52:07;;;;;;;15.48;6.82;;;;;;;;;;5031484;28;20408;-63
2023/06/17 05:54:34;;;;;;;13.77;6.85;;;;;;;;;;5036397;28;20068;-63
2023/06/17 05:57:00;;;;;;;27.90;7.55;;;;;;;;;;5037592;28;20458;-62
2023/06/17 05:59:29;;;;;;;14.63;6.30;;;;;;;;;;5035632;28;20479;-63
2023/06/17 06:01:55;;;;;;;11.18;6.00;;;;;;;;;;5054996;28;20048;-63
2023/06/17 06:04:22;;;;;;;11.70;6.10;;;;;;;;;;5059367;28;20583;-63
2023/06/17 06:06:48;;;;;;;11.93;5.95;;;;;;;;;;5035625;28;20298;-65
2023/06/17 06:09:15;;;;;;;10.93;6.53;;;;;;;;;;5038678;28;20138;-63
2023/06/17 06:11:41;;;;;;;8.05;5.68;;;;;;;;;;5046587;28;20406;-63
2023/06/17 06:14:07;;;;;;;10.85;5.72;;;;;;;;;;5039173;28;20052;-64
2023/06/17 06:16:33;;;;;;;13.23;6.45;;;;;;;;;;5036636;28;20057;-63
2023/06/17 06:19:00;;;;;;;14.57;5.53;;;;;;;;;;5034922;28;20084;-65
2023/06/17 06:21:28;;;;;;;10.40;5.32;;;;;;;;;;5035935;28;21852;-65
2023/06/17 06:23:54;;;;;;;10.77;5.72;;;;;;;;;;5037999;28;20045;-65
2023/06/17 06:26:20;;;;;;;9.60;5.57;;;;;;;;;;5039011;28;20939;-64
2023/06/17 06:28:46;;;;;;;10.23;6.05;;;;;;;;;;5036259;28;20095;-69
2023/06/17 06:31:13;;;;;;;12.38;5.70;;;;;;;;;;5046250;28;20079;-66
2023/06/17 06:33:39;;;;;;;11.18;5.88;;;;;;;;;;5037277;28;20064;-63
2023/06/17 06:36:05;;;;;;;10.95;6.07;;;;;;;;;;5041951;28;20531;-64
2023/06/17 06:38:31;;;;;;;10.40;5.72;;;;;;;;;;5034407;28;20088;-63
2023/06/17 06:40:57;;;;;;;15.27;5.88;;;;;;;;;;5038911;28;20131;-65
2023/06/17 06:43:23;;;;;;;10.25;5.75;;;;;;;;;;5032758;28;20052;-62
2023/06/17 06:45:49;;;;;;;12.20;6.05;;;;;;;;;;5037347;28;20049;-62
2023/06/17 06:48:16;;;;;;;8.18;5.55;;;;;;;;;;5035718;28;20045;-65
2023/06/17 06:50:42;;;;;;;11.45;5.90;;;;;;;;;;5040451;28;20929;-64
2023/06/17 06:53:09;;;;;;;9.27;5.90;;;;;;;;;;5047375;28;20056;-65
2023/06/17 06:55:35;;;;;;;11.70;5.22;;;;;;;;;;5045559;28;20488;-64
2023/06/17 06:58:01;;;;;;;9.48;5.30;;;;;;;;;;5040080;28;20562;-64
2023/06/17 07:00:27;;;;;;;10.30;5.80;;;;;;;;;;5033936;28;20053;-64
2023/06/17 07:02:53;;;;;;;8.95;5.25;;;;;;;;;;5044206;28;20068;-64
2023/06/17 07:05:22;;;;;;;12.23;5.63;;;;;;;;;;5042113;28;20044;-65
2023/06/17 07:07:49;;;;;;;8.70;5.93;;;;;;;;;;5035325;28;20057;-65
2023/06/17 07:10:16;;;;;;;9.90;5.70;;;;;;;;;;5039658;28;21146;-63
2023/06/17 07:12:42;;;;;;;8.23;5.20;;;;;;;;;;5043892;28;20130;-65
2023/06/17 07:15:10;;;;;;;13.48;5.57;;;;;;;;;;5036628;28;20057;-63
2023/06/17 07:17:38;;;;;;;11.63;5.47;;;;;;;;;;5036331;28;21123;-64
2023/06/17 07:20:05;;;;;;;13.15;5.70;;;;;;;;;;5044374;28;20056;-63
2023/06/17 07:22:37;;;;;;;12.48;5.18;;;;;;;;;;5042603;28;20040;-62
2023/06/17 07:25:06;;;;;;;10.93;5.68;;;;;;;;;;5037062;28;20174;-64
2023/06/17 07:27:32;;;;;;;8.90;5.15;;;;;;;;;;5038400;28;20053;-63
2023/06/17 07:30:00;;;;;;;12.48;5.63;;;;;;;;;;5033372;28;20049;-64
2023/06/17 07:32:26;;;;;;;17.42;6.68;;;;;;;;;;5041534;28;20164;-67
2023/06/17 07:34:53;;;;;;;16.60;5.55;;;;;;;;;;5047945;28;20227;-65
2023/06/17 07:37:19;;;;;;;10.48;4.82;;;;;;;;;;5043256;28;20080;-67
2023/06/17 07:39:48;;;;;;;13.65;5.93;;;;;;;;;;5041592;28;20612;-64
2023/06/17 07:42:16;;;;;;;8.25;4.93;;;;;;;;;;5042166;28;20103;-65
2023/06/17 07:44:43;;;;;;;11.00;5.30;;;;;;;;;;5043169;28;20304;-66
2023/06/17 07:47:09;;;;;;;10.82;5.78;;;;;;;;;;5041038;28;20053;-64
2023/06/17 07:49:36;;;;;;;11.40;5.30;;;;;;;;;;5043895;28;20458;-67
2023/06/17 07:52:03;;;;;;;10.27;5.30;;;;;;;;;;5037686;28;20060;-63
2023/06/17 07:54:30;;;;;;;10.65;5.03;;;;;;;;;;5032828;28;20597;-65
2023/06/17 07:56:56;;;;;;;9.48;5.20;;;;;;;;;;5030054;28;20044;-65
2023/06/17 08:00:03;;;;;;;8.02;4.88;;;;;;;;;;5021467;28;20052;-67
2023/06/17 08:03:43;;;;;;;8.23;5.18;;;;;;;;;;5033526;28;20040;-62
2023/06/17 08:07:23;;;;;;;12.25;5.57;;;;;;;;;;5041150;28;20052;-62
2023/06/17 08:11:03;;;;;;;14.30;5.57;;;;;;;;;;5037728;28;20153;-65
2023/06/17 08:14:44;;;;;;;10.07;5.07;;;;;;;;;;5039403;28;20458;-62
2023/06/17 08:18:24;;;;;;;13.82;5.10;;;;;;;;;;5035091;28;20136;-64
2023/06/17 08:22:10;;;;;;;10.32;5.25;;;;;;;;;;5036450;28;20114;-64
2023/06/17 08:25:49;;;;;;;19.17;9.02;;;;;;;;;;5045860;28;20317;-65
2023/06/17 08:29:31;;;;;;;13.40;6.05;;;;;;;;;;5035975;28;20055;-63
2023/06/17 08:32:54;;;;;;;12.13;7.10;;;;;;;;;;5038141;28;20471;-66
2023/06/17 08:36:16;;;;;;;22.00;11.27;;;;;;;;;;5036866;28;20501;-62
2023/06/17 08:39:58;;;;;;;10.27;6.45;;;;;;;;;;5045028;28;20056;-63
2023/06/17 08:43:39;;;;;;;11.88;6.85;;;;;;;;;;5036060;28;20045;-64
2023/06/17 08:47:20;;;;;;;19.98;6.50;;;;;;;;;;5046193;28;20574;-64
2023/06/17 08:51:00;;;;;;;11.10;5.68;;;;;;;;;;5039902;28;20044;-64
2023/06/17 08:54:42;;;;;;;14.60;6.10;;;;;;;;;;5036266;28;20040;-64
2023/06/17 08:58:23;;;;;;;10.80;5.13;;;;;;;;;;5037887;28;20105;-64
2023/06/17 09:02:03;;;;;;;13.10;5.65;;;;;;;;;;5029727;28;20412;-64
2023/06/17 09:05:43;;;;;;;12.38;5.70;;;;;;;;;;5035675;28;20036;-64
2023/06/17 09:09:23;;;;;;;12.90;5.82;;;;;;;;;;5035993;28;20124;-62
2023/06/17 09:13:04;;;;;;;16.95;5.90;;;;;;;;;;5039580;28;20045;-62
2023/06/17 09:16:26;;;;;;;13.27;5.28;;;;;;;;;;5042364;28;20060;-63
2023/06/17 09:20:06;;;;;;;16.13;6.10;;;;;;;;;;5037506;28;20061;-64
2023/06/17 09:23:46;;;;;;;25.00;8.27;;;;;;;;;;5039261;28;20056;-64
2023/06/17 09:26:47;;;;;;;25.02;8.35;;;;;;;;;;5039384;28;20072;-66
2023/06/17 09:29:14;;;;;;;21.25;7.47;;;;;;;;;;5047906;28;20053;-66
2023/06/17 09:32:32;;;;;;;13.82;6.38;;;;;;;;;;5043194;28;20056;-65
2023/06/17 09:36:19;;;;;;;15.00;5.90;;;;;;;;;;5043989;28;20091;-61
2023/06/17 09:39:39;;;;;;;;;;;;;;;;;;5032346;28;20468;-63
2023/06/17 09:43:21;;;;;;;10.68;5.90;;;;;;;;;;5031221;28;19935;-66
2023/06/17 09:47:03;;;;;;;10.50;5.38;;;;;;;;;;5038331;28;20559;-63
2023/06/17 09:50:11;;;;;;;10.23;4.93;;;;;;;;;;5028141;28;20095;-69
2023/06/17 09:53:17;;;;;;;12.13;5.30;;;;;;;;;;5031728;28;20520;-64
2023/06/17 09:56:58;;;;;;;20.13;6.07;;;;;;;;;;5031938;28;20041;-65
2023/06/17 10:00:37;;;;;;;13.20;5.30;;;;;;;;;;5036323;28;20104;-68
2023/06/17 10:04:18;;;;;;;14.55;5.97;;;;;;;;;;5037222;28;20045;-70
2023/06/17 10:07:58;;;;;;;8.25;4.85;;;;;;;;;;5045500;28;20043;-68
2023/06/17 10:11:39;;;;;;;7.93;5.03;;;;;;;;;;5038932;28;20052;-69
2023/06/17 10:15:19;;;;;;;9.52;5.10;;;;;;;;;;5037381;28;20124;-68
2023/06/17 10:18:59;;;;;;;6.30;4.32;;;;;;;;;;5035715;28;20045;-69
2023/06/17 10:22:40;;;;;;;15.45;5.38;;;;;;;;;;5041117;28;20511;-72
2023/06/17 10:26:21;;;;;;;13.50;5.22;;;;;;;;;;5043276;28;20049;-68
2023/06/17 10:30:00;;;;;;;9.85;5.13;;;;;;;;;;5044209;28;20678;-69
2023/06/17 10:33:41;;;;;;;10.23;4.68;;;;;;;;;;5033921;28;20072;-70
2023/06/17 10:37:21;;;;;;;9.93;4.80;;;;;;;;;;5036951;28;20381;-68
2023/06/17 10:41:07;;;;;;;7.65;4.57;;;;;;;;;;5044908;28;20045;-70
2023/06/17 10:44:46;;;;;;;8.45;4.95;;;;;;;;;;5040475;28;20037;-69
2023/06/17 10:48:36;;;;;;;7.47;4.80;;;;;;;;;;5046734;28;20072;-70
2023/06/17 10:52:16;;;;;;;9.60;4.60;;;;;;;;;;5030235;28;20049;-71
2023/06/17 10:55:56;;;;;;;8.30;4.32;;;;;;;;;;5040966;28;20484;-69
2023/06/17 10:59:48;;;;;;;7.07;3.97;;;;;;;;;;5041100;28;20043;-69
2023/06/17 11:03:28;;;;;;;10.30;4.22;;;;;;;;;;5041126;28;20511;-68
2023/06/17 11:07:09;;;;;;;6.50;4.38;;;;;;;;;;5040953;28;20045;-69
2023/06/17 11:10:49;;;;;;;6.75;4.35;;;;;;;;;;5040370;28;20053;-68
2023/06/17 11:14:30;;;;;;;10.18;4.40;;;;;;;;;;5034140;28;20041;-69
2023/06/17 11:18:24;;;;;;;9.93;5.03;;;;;;;;;;5035099;28;20049;-69
2023/06/17 11:22:11;;;;;;;10.52;4.50;;;;;;;;;;5037339;28;20060;-70
2023/06/17 11:25:51;;;;;;;7.75;4.57;;;;;;;;;;5038862;28;20632;-68
2023/06/17 11:29:32;;;;;;;8.40;3.95;;;;;;;;;;5038940;28;20049;-69
2023/06/17 11:33:14;;;;;;;6.65;3.58;;;;;;;;;;5037002;28;20833;-69
2023/06/17 11:36:55;;;;;;;6.82;3.97;;;;;;;;;;5041247;28;20033;-69
2023/06/17 11:40:39;;;;;;;8.15;3.80;;;;;;;;;;5044783;28;20049;-67
2023/06/17 11:44:20;;;;;;;8.07;3.90;;;;;;;;;;5043893;28;20076;-68
2023/06/17 11:48:00;;;;;;;7.07;3.60;;;;;;;;;;5041571;28;20044;-68
2023/06/17 11:51:40;;;;;;;12.48;3.80;;;;;;;;;;5041296;28;20069;-68
2023/06/17 11:55:24;;;;;;;6.75;3.47;;;;;;;;;;5045868;28;20063;-67
2023/06/17 11:59:04;;;;;;;5.93;3.10;;;;;;;;;;5043147;28;20374;-68
2023/06/17 12:02:49;;;;;;;7.97;3.10;;;;;;;;;;5040814;28;20107;-71
2023/06/17 12:06:30;;;;;;;5.75;3.17;;;;;;;;;;5044246;28;20053;-68
2023/06/17 12:10:10;;;;;;;6.97;3.30;;;;;;;;;;5046406;28;20120;-68
2023/06/17 12:13:57;;;;;;;7.28;3.50;;;;;;;;;;5035205;28;20089;-68
2023/06/17 12:17:37;;;;;;;4.57;3.40;;;;;;;;;;5036898;28;20057;-68
2023/06/17 12:21:17;;;;;;;7.63;3.58;;;;;;;;;;5043448;28;20053;-70
2023/06/17 12:24:58;;;;;;;5.65;3.53;;;;;;;;;;5041671;28;20245;-67
2023/06/17 12:28:40;;;;;;;4.60;3.30;;;;;;;;;;5038934;28;20536;-70
2023/06/17 12:32:20;;;;;;;6.55;4.20;;;;;;;;;;5045994;28;20560;-67
2023/06/17 12:36:01;;;;;;;4.63;3.65;;;;;;;;;;5041260;28;20132;-68
2023/06/17 12:39:41;;;;;;;7.95;3.50;;;;;;;;;;5041192;28;20132;-68
2023/06/17 12:43:22;;;;;;;4.97;2.97;;;;;;;;;;5046248;28;20120;-69
2023/06/17 12:47:03;;;;;;;5.13;3.47;;;;;;;;;;5036140;28;20107;-68
2023/06/17 12:50:45;;;;;;;6.03;3.10;;;;;;;;;;5041798;28;20067;-70
2023/06/17 12:54:25;;;;;;;7.88;3.30;;;;;;;;;;5047374;28;20468;-66
2023/06/17 12:58:06;;;;;;;5.35;3.10;;;;;;;;;;5036738;28;20041;-67
2023/06/17 13:01:46;;;;;;;7.22;3.40;;;;;;;;;;5038515;28;20045;-68
2023/06/17 13:05:26;;;;;;;9.18;3.60;;;;;;;;;;5041800;28;20055;-69
2023/06/17 13:09:08;;;;;;;7.13;3.33;;;;;;;;;;5044327;28;20661;-68
2023/06/17 13:12:48;;;;;;;6.93;3.13;;;;;;;;;;5043236;28;20057;-69
2023/06/17 13:16:29;;;;;;;7.55;3.20;;;;;;;;;;5042930;28;20055;-67
2023/06/17 13:20:09;;;;;;;8.80;3.05;;;;;;;;;;5040175;28;20049;-68
2023/06/17 13:23:49;;;;;;;9.52;3.38;;;;;;;;;;5034209;28;20049;-70
2023/06/17 13:27:30;;;;;;;8.50;3.22;;;;;;;;;;5042847;28;20052;-69
2023/06/17 13:31:10;;;;;;;7.50;2.90;;;;;;;;;;5036984;28;20041;-68
2023/06/17 13:34:50;;;;;;;8.73;3.40;;;;;;;;;;5039392;28;20730;-67
2023/06/17 13:38:31;;;;;;;8.93;3.00;;;;;;;;;;5040450;28;20052;-68
2023/06/17 13:42:11;;;;;;;6.95;2.60;;;;;;;;;;5042853;28;20602;-68
2023/06/17 13:45:54;;;;;;;5.88;2.83;;;;;;;;;;5035346;28;20045;-67
2023/06/17 13:49:35;;;;;;;7.18;2.67;;;;;;;;;;5045102;28;20051;-70
2023/06/17 13:53:15;;;;;;;6.18;2.88;;;;;;;;;;5041412;28;20115;-69
2023/06/17 13:56:56;;;;;;;6.13;2.60;;;;;;;;;;5041905;28;20039;-69
2023/06/17 14:00:38;;;;;;;6.97;2.75;;;;;;;;;;5039920;28;20132;-68
2023/06/17 14:04:18;;;;;;;7.18;2.80;;;;;;;;;;5042945;28;20045;-69
2023/06/17 14:07:58;;;;;;;4.47;2.47;;;;;;;;;;5045896;28;20094;-67
2023/06/17 14:11:39;;;;;;;9.93;2.88;;;;;;;;;;5040154;28;20043;-70
2023/06/17 14:15:19;;;;;;;8.30;2.83;;;;;;;;;;5040176;28;20055;-68
2023/06/17 14:18:59;;;;;;;6.57;2.70;;;;;;;;;;5040687;28;20045;-67
2023/06/17 14:22:40;;;;;;;9.65;2.88;;;;;;;;;;5038858;28;20040;-70
2023/06/17 14:26:20;;;;;;;7.55;2.90;;;;;;;;;;5042769;28;20045;-68
2023/06/17 14:30:00;;;;;;;7.25;2.70;;;;;;;;;;5034577;28;20515;-70
2023/06/17 14:33:45;;;;;;;13.52;2.92;;;;;;;;;;5037807;28;20045;-67
2023/06/17 14:37:28;;;;;;;6.88;2.72;;;;;;;;;;5037819;28;20092;-68
2023/06/17 14:41:09;;;;;;;10.35;3.13;;;;;;;;;;5042580;28;20560;-70
2023/06/17 14:44:50;;;;;;;11.00;2.95;;;;;;;;;;5037761;28;20488;-70
2023/06/17 14:48:32;;;;;;;7.80;2.83;;;;;;;;;;5042108;28;20045;-69
2023/06/17 14:52:15;;;;;;;9.35;2.88;;;;;;;;;;5039688;28;20057;-73
2023/06/17 14:55:55;;;;;;;11.05;3.03;;;;;;;;;;5033213;28;20045;-70
2023/06/17 14:59:40;;;;;;;10.48;2.88;;;;;;;;;;5038945;28;20063;-68
2023/06/17 15:02:47;;;;;;;6.00;2.70;;;;;;;;;;5033331;28;20357;-67
2023/06/17 15:06:28;;;;;;;13.55;3.30;;;;;;;;;;5041994;28;20049;-69
2023/06/17 15:10:10;;;;;;;6.05;2.78;;;;;;;;;;5024769;28;20046;-67
2023/06/17 15:13:50;;;;;;;8.93;2.92;;;;;;;;;;5042479;28;20067;-71
2023/06/17 15:17:31;;;;;;;13.27;3.10;;;;;;;;;;5040394;28;20084;-70
2023/06/17 15:21:12;;;;;;;11.65;3.60;;;;;;;;;;5038717;28;20053;-69
2023/06/17 15:24:53;;;;;;;19.33;3.42;;;;;;;;;;5032804;28;20408;-69
2023/06/17 15:28:34;;;;;;;13.07;3.10;;;;;;;;;;5039781;28;20041;-69
2023/06/17 15:32:16;;;;;;;8.95;3.40;;;;;;;;;;5035380;28;20480;-69
2023/06/17 15:35:19;;;;;;;9.32;2.92;;;;;;;;;;5041481;28;20037;-70
2023/06/17 15:38:25;;;;;;;9.63;3.00;;;;;;;;;;5041191;28;20118;-66
2023/06/17 15:42:05;;;;;;;13.43;3.20;;;;;;;;;;5041496;28;20041;-66
2023/06/17 15:45:46;;;;;;;9.57;2.70;;;;;;;;;;5043116;28;20072;-67
2023/06/17 15:49:26;;;;;;;7.53;2.78;;;;;;;;;;5044037;28;20412;-67
2023/06/17 15:53:08;;;;;;;9.38;3.33;;;;;;;;;;5039162;28;20334;-67
2023/06/17 15:56:48;;;;;;;7.90;3.15;;;;;;;;;;5039567;28;20112;-71
2023/06/17 16:00:31;;;;;;;8.77;3.58;;;;;;;;;;5040609;28;20438;-69
2023/06/17 16:04:19;;;;;;;10.20;3.63;;;;;;;;;;5038241;28;20458;-67
2023/06/17 16:07:56;;;;;;;10.75;3.05;;;;;;;;;;5038799;28;20107;-71
2023/06/17 16:11:36;;;;;;;11.25;4.40;;;;;;;;;;5042917;28;20107;-69
2023/06/17 16:15:17;;;;;;;12.15;3.30;;;;;;;;;;5044250;28;20497;-68
2023/06/17 16:18:58;;;;;;;9.25;3.38;;;;;;;;;;5040533;28;20098;-71
2023/06/17 16:22:39;;;;;;;9.10;3.22;;;;;;;;;;5035773;28;20527;-71
2023/06/17 16:26:19;;;;;;;10.43;3.28;;;;;;;;;;5029486;28;20150;-72
2023/06/17 16:29:59;;;;;;;8.63;3.30;;;;;;;;;;5037845;28;20037;-70
2023/06/17 16:33:40;;;;;;;7.93;3.10;;;;;;;;;;5041179;28;20038;-69
2023/06/17 16:37:21;;;;;;;7.35;3.40;;;;;;;;;;5024258;28;20072;-69
2023/06/17 16:41:02;;;;;;;12.57;3.42;;;;;;;;;;5041527;28;20481;-73
2023/06/17 16:44:42;;;;;;;9.80;3.28;;;;;;;;;;5035800;28;20063;-69
2023/06/17 16:48:22;;;;;;;9.68;3.60;;;;;;;;;;5036814;28;20077;-68
2023/06/17 16:51:47;;;;;;;9.98;3.17;;;;;;;;;;5032850;28;20547;-70
2023/06/17 16:54:57;;;;;;;8.80;3.15;;;;;;;;;;5045522;28;20505;-66
2023/06/17 16:58:17;;;;;;;9.73;3.55;;;;;;;;;;5040221;28;20124;-67
2023/06/17 17:01:58;;;;;;;10.27;3.17;;;;;;;;;;5032391;28;20051;-70
2023/06/17 17:05:38;;;;;;;13.02;3.70;;;;;;;;;;5038393;28;20037;-67
2023/06/17 17:09:19;;;;;;;10.52;3.13;;;;;;;;;;5045004;28;20082;-66
2023/06/17 17:12:59;;;;;;;11.43;3.75;;;;;;;;;;5049733;28;20049;-68
2023/06/17 17:16:39;;;;;;;11.13;3.50;;;;;;;;;;5036967;28;20465;-69
2023/06/17 17:19:44;;;;;;;17.52;3.60;;;;;;;;;;5039002;28;20048;-67
2023/06/17 17:22:52;;;;;;;9.02;3.45;;;;;;;;;;5047322;28;20037;-67
2023/06/17 17:26:32;;;;;;;11.80;4.07;;;;;;;;;;5039473;28;20045;-69
2023/06/17 17:30:13;;;;;;;7.50;3.08;;;;;;;;;;5041020;28;20417;-68
2023/06/17 17:33:53;;;;;;;11.00;3.67;;;;;;;;;;5039782;28;20045;-70
2023/06/17 17:37:33;;;;;;;9.27;3.60;;;;;;;;;;5043925;28;20056;-70
2023/06/17 17:41:14;;;;;;;13.85;3.85;;;;;;;;;;5036667;28;20144;-68
2023/06/17 17:44:54;;;;;;;14.20;3.83;;;;;;;;;;5043833;28;20677;-69
2023/06/17 17:48:34;;;;;;;12.43;3.58;;;;;;;;;;5042681;28;20047;-68
2023/06/17 17:52:16;;;;;;;11.63;3.53;;;;;;;;;;5036066;28;20091;-70